sensor_id;sensor_type;location;lat;lon;timestamp;temperature;humidity
1524;DHT22;755;53.658;10.118;2022-11-20T00:09:45;1.70;99.90
1524;DHT22;755;53.658;10.118;2022-11-20T00:19:46;1.70;99.90
1524;DHT22;755;53.658;10.118;2022-11-20T00:29:50;1.70;99.90
1524;DHT22;755;53.658;10.118;2022-11-20T00:39:52;1.70;99.90
1524;DHT22;755;53.658;10.118;2022-11-20T00:49:55;1.70;99.90
1524;DHT22;755;53.658;10.118;2022-11-20T00:59:57;1.70;99.90
1524;DHT22;755;53.658;10.118;2022-11-20T01:10:00;1.70;99.90
1524;DHT22;755;53.658;10.118;2022-11-20T01:20:02;1.70;99.90
1524;DHT22;755;53.658;10.118;2022-11-20T01:30:07;1.70;99.90
1524;DHT22;755;53.658;10.118;2022-11-20T01:40:11;1.70;99.90
1524;DHT22;755;53.658;10.118;2022-11-20T01:50:17;1.80;99.90
1524;DHT22;755;53.658;10.118;2022-11-20T02:00:21;1.70;99.90
1524;DHT22;755;53.658;10.118;2022-11-20T02:10:26;1.70;99.90
1524;DHT22;755;53.658;10.118;2022-11-20T02:20:29;1.70;99.90
1524;DHT22;755;53.658;10.118;2022-11-20T02:30:33;1.70;99.90
1524;DHT22;755;53.658;10.118;2022-11-20T02:40:39;1.60;99.90
1524;DHT22;755;53.658;10.118;2022-11-20T02:50:43;1.60;99.90
1524;DHT22;755;53.658;10.118;2022-11-20T03:00:45;1.60;99.90
1524;DHT22;755;53.658;10.118;2022-11-20T03:10:49;1.50;99.90
1524;DHT22;755;53.658;10.118;2022-11-20T03:21:06;1.60;99.90
1524;DHT22;755;53.658;10.118;2022-11-20T03:31:11;1.50;99.90
1524;DHT22;755;53.658;10.118;2022-11-20T03:41:14;1.50;99.90
1524;DHT22;755;53.658;10.118;2022-11-20T03:51:20;1.50;99.90
1524;DHT22;755;53.658;10.118;2022-11-20T04:01:24;1.50;99.90
1524;DHT22;755;53.658;10.118;2022-11-20T04:11:29;1.50;99.90
1524;DHT22;755;53.658;10.118;2022-11-20T04:21:32;1.50;99.90
1524;DHT22;755;53.658;10.118;2022-11-20T04:31:36;1.50;99.90
1524;DHT22;755;53.658;10.118;2022-11-20T04:41:38;1.50;99.90
1524;DHT22;755;53.658;10.118;2022-11-20T04:51:42;1.50;99.90
1524;DHT22;755;53.658;10.118;2022-11-20T05:01:44;1.40;99.90
1524;DHT22;755;53.658;10.118;2022-11-20T05:11:48;1.40;99.90
1524;DHT22;755;53.658;10.118;2022-11-20T05:21:52;1.40;99.90
1524;DHT22;755;53.658;10.118;2022-11-20T05:31:56;1.30;99.90
1524;DHT22;755;53.658;10.118;2022-11-20T05:41:58;1.40;99.90
1524;DHT22;755;53.658;10.118;2022-11-20T05:52:20;1.40;99.90
1524;DHT22;755;53.658;10.118;2022-11-20T06:02:22;1.30;99.90
1524;DHT22;755;53.658;10.118;2022-11-20T06:12:26;1.20;99.90
1524;DHT22;755;53.658;10.118;2022-11-20T06:22:28;1.30;99.90
1524;DHT22;755;53.658;10.118;2022-11-20T06:32:33;1.30;99.90
1524;DHT22;755;53.658;10.118;2022-11-20T06:42:38;1.30;99.90
1524;DHT22;755;53.658;10.118;2022-11-20T06:52:42;1.30;99.90
1524;DHT22;755;53.658;10.118;2022-11-20T07:02:45;1.40;99.90
1524;DHT22;755;53.658;10.118;2022-11-20T07:12:51;1.40;99.90
1524;DHT22;755;53.658;10.118;2022-11-20T07:22:54;1.40;99.90
1524;DHT22;755;53.658;10.118;2022-11-20T07:32:58;1.30;99.90
1524;DHT22;755;53.658;10.118;2022-11-20T07:43:00;1.30;99.90
1524;DHT22;755;53.658;10.118;2022-11-20T07:53:05;1.40;99.90
1524;DHT22;755;53.658;10.118;2022-11-20T08:03:07;1.40;99.90
1524;DHT22;755;53.658;10.118;2022-11-20T08:13:11;1.40;99.90
1524;DHT22;755;53.658;10.118;2022-11-20T08:23:34;1.50;99.90
1524;DHT22;755;53.658;10.118;2022-11-20T08:33:39;1.50;99.90
1524;DHT22;755;53.658;10.118;2022-11-20T08:43:42;1.70;99.90
1524;DHT22;755;53.658;10.118;2022-11-20T08:53:46;1.60;99.90
1524;DHT22;755;53.658;10.118;2022-11-20T09:03:50;1.60;99.90
1524;DHT22;755;53.658;10.118;2022-11-20T09:13:54;1.60;99.90
1524;DHT22;755;53.658;10.118;2022-11-20T09:23:56;1.80;99.90
1524;DHT22;755;53.658;10.118;2022-11-20T09:34:00;2.00;99.90
1524;DHT22;755;53.658;10.118;2022-11-20T09:44:07;2.00;99.90
1524;DHT22;755;53.658;10.118;2022-11-20T09:54:18;2.00;99.90
1524;DHT22;755;53.658;10.118;2022-11-20T10:04:22;2.00;99.90
1524;DHT22;755;53.658;10.118;2022-11-20T10:14:37;2.00;99.90
1524;DHT22;755;53.658;10.118;2022-11-20T10:24:51;2.10;99.90
1524;DHT22;755;53.658;10.118;2022-11-20T10:35:03;2.20;99.90
1524;DHT22;755;53.658;10.118;2022-11-20T10:45:15;2.40;99.90
1524;DHT22;755;53.658;10.118;2022-11-20T10:55:40;2.20;99.90
1524;DHT22;755;53.658;10.118;2022-11-20T11:05:49;2.20;99.90
1524;DHT22;755;53.658;10.118;2022-11-20T11:15:55;2.50;99.90
1524;DHT22;755;53.658;10.118;2022-11-20T11:25:59;2.70;99.90
1524;DHT22;755;53.658;10.118;2022-11-20T11:36:17;2.40;99.90
1524;DHT22;755;53.658;10.118;2022-11-20T11:46:29;2.30;99.90
1524;DHT22;755;53.658;10.118;2022-11-20T11:56:33;2.50;99.90
1524;DHT22;755;53.658;10.118;2022-11-20T12:06:36;2.40;99.90
1524;DHT22;755;53.658;10.118;2022-11-20T12:16:43;2.70;99.90
1524;DHT22;755;53.658;10.118;2022-11-20T12:26:57;2.60;99.90
1524;DHT22;755;53.658;10.118;2022-11-20T12:37:07;2.40;99.90
1524;DHT22;755;53.658;10.118;2022-11-20T12:47:19;2.50;99.90
1524;DHT22;755;53.658;10.118;2022-11-20T12:57:34;2.90;99.90
1524;DHT22;755;53.658;10.118;2022-11-20T13:07:40;3.20;99.90
1524;DHT22;755;53.658;10.118;2022-11-20T13:17:48;3.20;99.90
1524;DHT22;755;53.658;10.118;2022-11-20T13:27:54;3.20;99.90
1524;DHT22;755;53.658;10.118;2022-11-20T13:38:07;3.10;99.90
1524;DHT22;755;53.658;10.118;2022-11-20T13:48:20;3.00;99.90
1524;DHT22;755;53.658;10.118;2022-11-20T13:58:34;2.90;99.90
1524;DHT22;755;53.658;10.118;2022-11-20T14:08:40;2.90;99.90
1524;DHT22;755;53.658;10.118;2022-11-20T14:18:45;2.50;99.90
1524;DHT22;755;53.658;10.118;2022-11-20T14:28:51;2.40;99.90
1524;DHT22;755;53.658;10.118;2022-11-20T15:11:33;2.60;99.90
1524;DHT22;755;53.658;10.118;2022-11-20T15:21:51;2.60;99.90
1524;DHT22;755;53.658;10.118;2022-11-20T15:31:59;2.50;99.90
1524;DHT22;755;53.658;10.118;2022-11-20T15:42:01;2.50;99.90
1524;DHT22;755;53.658;10.118;2022-11-20T15:52:09;2.50;99.90
1524;DHT22;755;53.658;10.118;2022-11-20T16:02:12;2.50;99.90
1524;DHT22;755;53.658;10.118;2022-11-20T16:12:17;2.50;99.90
1524;DHT22;755;53.658;10.118;2022-11-20T16:22:51;2.50;99.90
1524;DHT22;755;53.658;10.118;2022-11-20T16:32:55;2.40;99.90
1524;DHT22;755;53.658;10.118;2022-11-20T16:43:08;2.30;99.90
1524;DHT22;755;53.658;10.118;2022-11-20T16:53:16;2.20;99.90
1524;DHT22;755;53.658;10.118;2022-11-20T17:03:23;2.30;99.90
1524;DHT22;755;53.658;10.118;2022-11-20T17:13:33;2.50;99.90
1524;DHT22;755;53.658;10.118;2022-11-20T17:23:38;2.40;99.90
1524;DHT22;755;53.658;10.118;2022-11-20T17:33:52;2.50;99.90
1524;DHT22;755;53.658;10.118;2022-11-20T17:44:00;2.30;99.90
1524;DHT22;755;53.658;10.118;2022-11-20T17:54:07;2.10;99.90
1524;DHT22;755;53.658;10.118;2022-11-20T18:04:15;1.80;99.90
1524;DHT22;755;53.658;10.118;2022-11-20T18:14:20;1.60;99.90
1524;DHT22;755;53.658;10.118;2022-11-20T18:24:36;1.40;99.90
1524;DHT22;755;53.658;10.118;2022-11-20T18:34:42;1.40;99.90
1524;DHT22;755;53.658;10.118;2022-11-20T18:44:51;1.30;99.90
1524;DHT22;755;53.658;10.118;2022-11-20T18:54:59;1.20;99.90
1524;DHT22;755;53.658;10.118;2022-11-20T19:05:02;1.00;99.90
1524;DHT22;755;53.658;10.118;2022-11-20T19:15:08;0.90;99.90
1524;DHT22;755;53.658;10.118;2022-11-20T19:25:11;1.00;99.90
1524;DHT22;755;53.658;10.118;2022-11-20T19:35:18;0.90;99.90
1524;DHT22;755;53.658;10.118;2022-11-20T19:45:27;1.00;99.90
1524;DHT22;755;53.658;10.118;2022-11-20T19:55:31;1.10;99.90
1524;DHT22;755;53.658;10.118;2022-11-20T20:05:34;1.10;99.90
1524;DHT22;755;53.658;10.118;2022-11-20T20:15:40;0.90;99.90
1524;DHT22;755;53.658;10.118;2022-11-20T20:25:47;0.80;99.90
1524;DHT22;755;53.658;10.118;2022-11-20T20:35:51;0.70;99.90
1524;DHT22;755;53.658;10.118;2022-11-20T20:45:54;0.60;99.90
1524;DHT22;755;53.658;10.118;2022-11-20T20:56:00;0.40;99.90
1524;DHT22;755;53.658;10.118;2022-11-20T21:06:03;0.30;99.90
1524;DHT22;755;53.658;10.118;2022-11-20T21:16:10;0.10;99.90
1524;DHT22;755;53.658;10.118;2022-11-20T21:26:16;0.10;99.90
1524;DHT22;755;53.658;10.118;2022-11-20T21:36:27;0.00;99.90
1524;DHT22;755;53.658;10.118;2022-11-20T21:46:32;-0.10;99.90
1524;DHT22;755;53.658;10.118;2022-11-20T21:56:45;-0.20;99.90
1524;DHT22;755;53.658;10.118;2022-11-20T22:06:54;-0.40;99.90
1524;DHT22;755;53.658;10.118;2022-11-20T22:17:12;-0.50;99.90
1524;DHT22;755;53.658;10.118;2022-11-20T22:27:18;-0.90;99.90
1524;DHT22;755;53.658;10.118;2022-11-20T22:37:29;-0.70;99.90
1524;DHT22;755;53.658;10.118;2022-11-20T22:47:47;-0.60;99.90
1524;DHT22;755;53.658;10.118;2022-11-20T22:57:55;-0.60;99.90
1524;DHT22;755;53.658;10.118;2022-11-20T23:08:04;-0.80;99.90
1524;DHT22;755;53.658;10.118;2022-11-20T23:18:13;-0.70;99.90
1524;DHT22;755;53.658;10.118;2022-11-20T23:28:19;-0.70;99.90
1524;DHT22;755;53.658;10.118;2022-11-20T23:38:26;-0.80;99.90
1524;DHT22;755;53.658;10.118;2022-11-20T23:48:33;-0.80;99.90
1524;DHT22;755;53.658;10.118;2022-11-20T23:58:42;-0.90;99.90
